• Join FlightAware (Why Join?)
  • Login
  • US Flag 
04:42AM EDT


 

Airport Tracker/Info


-or-


 

Live Flight TrackerFlight Track Log ✈ UCA4838 ✈ 15-May-2013 ✈ KALB - KEWR

Flight Track Log - Related Links

Times and Time Zones

All times are in EDT time to prevent confusion due to time zone crossing. See the UCA4838 flight status page for this flight to view local times or setup timezone preferences in your user account.

Time Position Orientation Groundspeed Altitude Reporting Facility
EDT Latitude Longitude Course Direction KTS MPH feet Rate Location/Type
09:33AM 42.7506 -73.8256 278° West 139 160 1,000  Level Boston Center
09:33AM 42.7522 -73.8425 278° West 140 161 1,500 1,080 Climbing Boston Center
09:34AM 42.7206 -73.8731 215° Southwest 159 183 2,500 1,140 Climbing Boston Center
09:35AM 42.6744 -73.8972 201° Southwest 162 186 4,000 1,200 Climbing Boston Center
09:36AM 42.6303 -73.9272 207° Southwest 173 199 5,100 1,140 Climbing Boston Center
09:37AM 42.5947 -73.9517 207° Southwest 184 212 6,100 1,200 Climbing Boston Center
09:38AM 42.5483 -73.9817 205° Southwest 186 214 7,300 1,200 Climbing Boston Center
09:39AM 42.5000 -74.0114 204° Southwest 193 222 8,600 1,260 Climbing Boston Center
09:40AM 42.4494 -74.0467 207° Southwest 195 224 9,900 900 Climbing Boston Center
09:41AM 42.4242 -74.0603 202° Southwest 201 231 10,000 60 Climbing Boston Center
09:42AM 42.3694 -74.0953 205° Southwest 258 297 10,000  Level Boston Center
09:43AM 42.3022 -74.1411 207° Southwest 268 308 10,000  Level Boston Center
09:44AM 42.2389 -74.1844 207° Southwest 268 308 10,000  Level Boston Center
09:45AM 42.1736 -74.2331 209° Southwest 268 308 10,000 -60 Level Boston Center
09:46AM 42.1064 -74.2758 205° Southwest 263 303 9,900 -480 Descending Boston Center
09:47AM 42.0369 -74.3075 199° South 263 303 9,100 -900 Descending Boston Center
09:48AM 41.9656 -74.3386 198° South 268 308 8,200 -600 Descending Boston Center
09:49AM 41.8983 -74.3731 201° Southwest 268 308 8,000 -120 Descending Boston Center
09:50AM 41.8289 -74.4044 199° South 268 308 8,000  Level Boston Center
09:51AM 41.7575 -74.4328 196° South 263 303 8,000  Level Boston Center
09:52AM 41.6903 -74.4611 197° South 258 297 8,000  Level Boston Center
09:53AM 41.6125 -74.5003 201° Southwest 253 291 8,000  Level Boston Center
09:54AM 41.5453 -74.5286 198° South 253 291 8,000 -660 Level Boston Center
09:56AM 41.4167 -74.5833 198° South 250 288 6,100 -720 Descending New York TRACON
09:57AM 41.3500 -74.5667 169° South 242 278 6,000 -60 Descending New York TRACON
09:58AM 41.3000 -74.5167 143° Southeast 253 291 6,000  Level New York TRACON
09:59AM 41.2500 -74.4667 143° Southeast 252 290 6,100  Climbing New York TRACON
10:00AM 41.1833 -74.4000 143° Southeast 254 292 6,100 -360 Level New York TRACON
10:01AM 41.1333 -74.3500 143° Southeast 258 297 5,400 -540 Descending New York TRACON
10:02AM 41.0833 -74.2833 135° Southeast 252 290 5,100 -180 Descending New York TRACON
10:03AM 41.0333 -74.2333 143° Southeast 247 284 5,100 -300 Level New York TRACON
10:04AM 40.9833 -74.1833 143° Southeast 246 283 4,600 -540 Descending New York TRACON
10:05AM 40.9167 -74.1333 150° Southeast 238 274 4,100 -420 Descending New York TRACON
10:06AM 40.8833 -74.0833 131° Southeast 196 226 3,800 -540 Descending New York TRACON
10:06AM 40.8333 -74.0667 166° South 187 215 3,100 -900 Descending New York TRACON
10:07AM 40.7833 -74.1000 207° Southwest 181 208 2,100 -1,020 Descending New York TRACON
10:08AM 40.7500 -74.1333 217° Southwest 157 181 1,200 -900 Descending New York TRACON
10:09AM 40.7167 -74.1500 201° Southwest 132 152 500 -720 Descending New York TRACON